createdAt,value
2022-12-15T00:00:24.407Z,18.90
2022-12-15T00:03:31.643Z,12.30
2022-12-15T00:06:19.419Z,11.90
2022-12-15T00:09:11.109Z,12.40
2022-12-15T00:11:59.447Z,11.20
2022-12-15T00:14:46.174Z,11.60
2022-12-15T00:17:32.893Z,14.00
2022-12-15T00:20:19.491Z,12.70
2022-12-15T00:23:06.717Z,13.00
2022-12-15T00:25:53.334Z,11.00
2022-12-15T00:28:39.903Z,11.60
2022-12-15T00:31:26.773Z,12.60
2022-12-15T00:34:13.431Z,12.30
2022-12-15T00:37:00.091Z,22.10
2022-12-15T00:39:28.126Z,18.20
2022-12-15T00:41:56.168Z,17.00
2022-12-15T00:44:25.032Z,16.00
2022-12-15T00:46:56.049Z,17.90
2022-12-15T00:49:50.124Z,14.90
2022-12-15T00:52:37.343Z,14.90
2022-12-15T00:55:24.147Z,17.60
2022-12-15T00:58:12.795Z,15.20
2022-12-15T01:00:59.559Z,18.50
2022-12-15T01:03:46.330Z,17.10
2022-12-15T01:06:36.548Z,13.50
2022-12-15T01:09:26.125Z,11.70
2022-12-15T01:12:13.291Z,12.40
2022-12-15T01:15:00.042Z,15.40
2022-12-15T01:17:46.946Z,17.50
2022-12-15T01:20:20.846Z,16.30
2022-12-15T01:22:55.037Z,17.20
2022-12-15T01:25:26.099Z,15.80
2022-12-15T01:27:54.142Z,16.10
2022-12-15T01:30:26.083Z,14.60
2022-12-15T01:32:54.310Z,14.30
2022-12-15T01:35:22.746Z,13.30
2022-12-15T01:37:50.858Z,13.90
2022-12-15T01:40:39.471Z,17.60
2022-12-15T01:43:29.994Z,13.80
2022-12-15T01:46:03.073Z,52.30
2022-12-15T01:48:39.542Z,22.60
2022-12-15T01:51:19.038Z,16.00
2022-12-15T01:54:13.315Z,17.70
2022-12-15T01:56:46.573Z,14.80
2022-12-15T01:59:19.860Z,20.60
2022-12-15T02:01:49.698Z,17.00
2022-12-15T02:04:21.019Z,18.50
2022-12-15T02:06:49.211Z,14.70
2022-12-15T02:09:19.446Z,15.70
2022-12-15T02:11:59.708Z,23.50
2022-12-15T02:15:05.970Z,14.40
2022-12-15T02:17:49.299Z,13.50
2022-12-15T02:20:23.473Z,11.70
2022-12-15T02:23:16.480Z,13.70
2022-12-15T02:25:53.317Z,13.10
2022-12-15T02:29:06.712Z,12.60
2022-12-15T02:31:50.523Z,10.20
2022-12-15T02:34:37.435Z,16.50
2022-12-15T02:37:15.521Z,10.10
2022-12-15T02:39:44.639Z,11.10
2022-12-15T02:42:12.964Z,15.70
2022-12-15T02:44:55.659Z,13.60
2022-12-15T02:47:46.530Z,12.50
2022-12-15T02:50:48.618Z,11.60
2022-12-15T02:53:59.157Z,13.10
2022-12-15T02:56:57.723Z,12.30
2022-12-15T02:59:58.090Z,8.60
2022-12-15T03:02:30.776Z,15.70
2022-12-15T03:04:59.850Z,13.50
2022-12-15T03:07:28.237Z,13.50
2022-12-15T03:09:59.159Z,14.30
2022-12-15T03:12:27.831Z,14.40
2022-12-15T03:14:55.823Z,13.30
2022-12-15T03:17:24.199Z,15.00
2022-12-15T03:19:52.197Z,14.50
2022-12-15T03:22:20.449Z,17.50
2022-12-15T03:24:48.576Z,17.10
2022-12-15T03:27:16.601Z,14.50
2022-12-15T03:29:44.666Z,16.20
2022-12-15T03:32:12.790Z,13.70
2022-12-15T03:34:40.867Z,12.20
2022-12-15T03:37:09.335Z,7.30
2022-12-15T03:39:37.415Z,12.90
2022-12-15T03:42:05.481Z,11.70
2022-12-15T03:44:33.493Z,12.80
2022-12-15T03:47:03.817Z,13.30
2022-12-15T03:49:32.084Z,13.60
2022-12-15T03:52:00.150Z,9.80
2022-12-15T03:54:28.138Z,9.90
2022-12-15T03:56:56.143Z,14.00
2022-12-15T03:59:24.230Z,10.70
2022-12-15T04:01:52.390Z,12.80
2022-12-15T04:04:20.627Z,13.70
2022-12-15T04:06:48.622Z,10.20
2022-12-15T04:09:16.610Z,9.70
2022-12-15T04:11:44.729Z,15.20
2022-12-15T04:14:12.822Z,18.00
2022-12-15T04:16:40.920Z,14.50
2022-12-15T04:19:27.674Z,15.70
2022-12-15T04:21:56.255Z,18.10
2022-12-15T04:24:42.675Z,15.20
2022-12-15T04:27:29.346Z,12.50
2022-12-15T04:30:16.097Z,18.50
2022-12-15T04:33:03.450Z,15.50
2022-12-15T04:35:53.131Z,14.40
2022-12-15T04:38:47.127Z,14.70
2022-12-15T04:41:39.940Z,15.00
2022-12-15T04:44:27.057Z,18.10
2022-12-15T04:47:13.693Z,21.60
2022-12-15T04:50:00.498Z,17.60
2022-12-15T04:52:47.690Z,16.20
2022-12-15T04:55:34.273Z,16.30
2022-12-15T04:58:26.165Z,17.90
2022-12-15T05:01:16.563Z,11.20
2022-12-15T05:04:03.242Z,15.30
2022-12-15T05:06:49.911Z,16.60
2022-12-15T05:09:36.799Z,12.80
2022-12-15T05:12:23.949Z,15.50
2022-12-15T05:15:10.639Z,13.30
2022-12-15T05:17:57.331Z,15.50
2022-12-15T05:20:44.140Z,14.70
2022-12-15T05:23:31.190Z,15.70
2022-12-15T05:26:18.522Z,16.10
2022-12-15T05:29:05.806Z,17.90
2022-12-15T05:31:52.415Z,16.20
2022-12-15T05:34:26.427Z,18.50
2022-12-15T05:36:56.203Z,14.80
2022-12-15T05:39:25.235Z,13.60
2022-12-15T05:41:54.959Z,31.40
2022-12-15T05:44:24.527Z,11.90
2022-12-15T05:46:53.166Z,26.00
2022-12-15T05:49:23.521Z,15.00
2022-12-15T05:51:51.733Z,14.30
2022-12-15T05:54:20.941Z,13.00
2022-12-15T05:56:50.569Z,11.90
2022-12-15T05:59:22.059Z,10.00
2022-12-15T06:01:50.147Z,12.40
2022-12-15T06:04:18.397Z,12.60
2022-12-15T06:06:46.640Z,17.90
2022-12-15T06:09:14.664Z,16.20
2022-12-15T06:11:44.109Z,14.10
2022-12-15T06:14:12.214Z,9.60
2022-12-15T06:16:51.061Z,14.20
2022-12-15T06:19:20.404Z,13.20
2022-12-15T06:21:48.857Z,11.80
2022-12-15T06:24:17.254Z,14.90
2022-12-15T06:26:46.043Z,16.80
2022-12-15T06:29:18.531Z,16.50
2022-12-15T06:31:47.361Z,19.60
2022-12-15T06:34:17.307Z,17.10
2022-12-15T06:36:45.769Z,16.60
2022-12-15T06:39:16.922Z,15.00
2022-12-15T06:41:45.510Z,17.30
2022-12-15T06:44:15.378Z,14.10
2022-12-15T06:46:45.876Z,10.50
2022-12-15T06:49:14.745Z,17.60
2022-12-15T06:51:44.323Z,17.90
2022-12-15T06:54:12.607Z,15.80
2022-12-15T06:56:40.621Z,14.60
2022-12-15T06:59:10.825Z,15.60
2022-12-15T07:01:39.086Z,11.30
2022-12-15T07:04:07.389Z,16.30
2022-12-15T07:06:37.526Z,22.10
2022-12-15T07:09:08.534Z,18.20
2022-12-15T07:11:36.774Z,12.00
2022-12-15T07:14:05.034Z,16.40
2022-12-15T07:16:33.226Z,15.20
2022-12-15T07:19:01.339Z,18.40
2022-12-15T07:21:30.067Z,18.60
2022-12-15T07:23:59.039Z,23.70
2022-12-15T07:26:28.158Z,14.80
2022-12-15T07:28:56.667Z,20.70
2022-12-15T07:31:25.134Z,13.00
2022-12-15T07:33:54.921Z,13.60
2022-12-15T07:36:23.268Z,20.70
2022-12-15T07:38:51.970Z,14.90
2022-12-15T07:41:20.769Z,16.00
2022-12-15T07:43:49.457Z,15.80
2022-12-15T07:46:19.009Z,19.40
2022-12-15T07:48:50.052Z,36.30
2022-12-15T07:51:20.842Z,18.10
2022-12-15T07:53:50.962Z,13.90
2022-12-15T07:56:20.604Z,25.70
2022-12-15T07:58:49.806Z,14.80
2022-12-15T08:01:18.029Z,26.20
2022-12-15T08:03:46.641Z,21.70
2022-12-15T08:06:16.344Z,23.80
2022-12-15T08:08:50.596Z,22.80
2022-12-15T08:11:23.213Z,19.90
2022-12-15T08:16:39.920Z,27.90
2022-12-15T08:19:11.993Z,29.00
2022-12-15T08:21:42.273Z,26.30
2022-12-15T08:24:10.569Z,20.60
2022-12-15T08:26:38.761Z,15.40
2022-12-15T08:31:57.140Z,27.60
2022-12-15T08:34:25.228Z,20.00
2022-12-15T08:36:53.371Z,25.30
2022-12-15T08:39:21.437Z,21.80
2022-12-15T08:41:50.114Z,24.00
2022-12-15T08:44:18.190Z,18.70
2022-12-15T08:46:46.283Z,29.30
2022-12-15T08:49:21.212Z,33.70
2022-12-15T08:51:51.414Z,23.70
2022-12-15T08:54:20.689Z,24.80
2022-12-15T08:56:49.514Z,25.50
2022-12-15T08:59:17.689Z,25.60
2022-12-15T09:01:45.878Z,26.30
2022-12-15T09:04:14.246Z,29.80
2022-12-15T09:06:42.938Z,38.40
2022-12-15T09:09:13.725Z,44.40
2022-12-15T09:11:41.780Z,34.20
2022-12-15T09:14:09.905Z,27.90
2022-12-15T09:16:38.086Z,20.60
2022-12-15T09:19:08.462Z,28.80
2022-12-15T09:21:36.852Z,27.50
2022-12-15T09:24:05.346Z,19.80
2022-12-15T09:26:34.783Z,30.90
2022-12-15T09:29:03.392Z,29.80
2022-12-15T09:31:36.310Z,28.30
2022-12-15T09:34:04.373Z,33.50
2022-12-15T09:36:33.124Z,25.90
2022-12-15T09:39:02.913Z,30.30
2022-12-15T09:41:34.547Z,23.50
2022-12-15T09:44:10.977Z,25.80
2022-12-15T09:46:57.039Z,39.40
2022-12-15T09:49:31.298Z,32.60
2022-12-15T09:52:10.982Z,42.00
2022-12-15T09:54:43.612Z,24.30
2022-12-15T09:57:23.694Z,21.60
2022-12-15T10:00:16.213Z,27.30
2022-12-15T10:02:47.491Z,42.10
2022-12-15T10:05:57.480Z,29.20
2022-12-15T10:08:20.376Z,39.90
2022-12-15T10:10:56.642Z,23.60
2022-12-15T10:13:39.332Z,36.30
2022-12-15T10:16:21.238Z,37.50
2022-12-15T10:19:08.184Z,50.50
2022-12-15T10:21:36.635Z,33.00
2022-12-15T10:24:44.874Z,29.30
2022-12-15T10:27:25.415Z,31.50
2022-12-15T10:30:12.819Z,27.70
2022-12-15T10:33:04.341Z,34.80
2022-12-15T10:35:36.730Z,33.40
2022-12-15T10:38:07.167Z,42.30
2022-12-15T10:40:44.129Z,27.00
2022-12-15T10:43:24.726Z,27.00
2022-12-15T10:46:02.168Z,35.90
2022-12-15T10:48:30.598Z,39.30
2022-12-15T10:51:31.713Z,39.80
2022-12-15T10:54:06.653Z,45.60
2022-12-15T10:56:35.106Z,32.70
2022-12-15T10:59:22.600Z,33.40
2022-12-15T11:01:51.326Z,42.00
2022-12-15T11:04:26.805Z,41.80
2022-12-15T11:07:00.704Z,64.60
2022-12-15T11:09:38.333Z,49.60
2022-12-15T11:12:39.621Z,39.50
2022-12-15T11:15:23.061Z,36.70
2022-12-15T11:18:02.912Z,58.20
2022-12-15T11:20:35.902Z,39.70
2022-12-15T11:23:33.662Z,38.90
2022-12-15T11:26:17.311Z,26.90
2022-12-15T11:28:52.764Z,23.70
2022-12-15T11:31:25.365Z,35.90
2022-12-15T11:33:54.836Z,26.60
2022-12-15T11:36:52.381Z,49.70
2022-12-15T11:39:33.674Z,24.80
2022-12-15T11:42:01.694Z,22.30
2022-12-15T11:44:52.846Z,20.70
2022-12-15T11:47:30.945Z,20.70
2022-12-15T11:50:19.896Z,19.10
2022-12-15T11:52:53.743Z,20.00
2022-12-15T11:55:47.685Z,19.80
2022-12-15T11:58:40.097Z,21.70
2022-12-15T12:01:23.402Z,18.40
2022-12-15T12:04:26.037Z,19.70
2022-12-15T12:07:32.835Z,37.10
2022-12-15T12:10:38.393Z,26.90
2022-12-15T12:13:24.414Z,32.50
2022-12-15T12:16:27.266Z,27.30
2022-12-15T12:19:19.729Z,29.40
2022-12-15T12:21:51.086Z,24.20
2022-12-15T12:24:24.994Z,24.70
2022-12-15T12:27:04.404Z,24.80
2022-12-15T12:29:35.491Z,21.30
2022-12-15T12:33:00.891Z,21.60
2022-12-15T12:35:38.240Z,20.80
2022-12-15T12:38:09.921Z,23.80
2022-12-15T12:40:40.899Z,28.20
2022-12-15T12:43:14.021Z,22.30
2022-12-15T12:45:52.357Z,22.70
2022-12-15T12:48:29.653Z,23.10
2022-12-15T12:51:19.654Z,36.80
2022-12-15T12:53:48.673Z,25.40
2022-12-15T12:56:45.577Z,42.50
2022-12-15T12:59:30.839Z,31.40
2022-12-15T13:02:21.742Z,31.20
2022-12-15T13:05:00.566Z,32.50
2022-12-15T13:07:42.138Z,30.60
2022-12-15T13:10:28.172Z,31.10
2022-12-15T13:13:00.747Z,26.40
2022-12-15T13:15:31.519Z,24.40
2022-12-15T13:18:22.569Z,25.90
2022-12-15T13:20:54.623Z,29.60
2022-12-15T13:23:22.735Z,29.10
2022-12-15T13:25:56.743Z,29.50
2022-12-15T13:28:27.542Z,25.80
2022-12-15T13:31:21.900Z,28.50
2022-12-15T13:33:53.015Z,29.10
2022-12-15T13:36:39.889Z,30.10
2022-12-15T13:39:17.119Z,28.20
2022-12-15T13:42:31.635Z,24.80
2022-12-15T13:44:51.703Z,26.50
2022-12-15T13:47:26.254Z,32.20
2022-12-15T13:50:32.385Z,30.10
2022-12-15T13:53:20.088Z,29.30
2022-12-15T13:55:59.379Z,53.20
2022-12-15T13:58:33.161Z,43.50
2022-12-15T14:01:01.235Z,39.50
2022-12-15T14:03:29.510Z,43.00
2022-12-15T14:05:59.847Z,38.90
2022-12-15T14:08:30.999Z,43.70
2022-12-15T14:11:16.587Z,42.20
2022-12-15T14:13:54.341Z,39.40
2022-12-15T14:16:23.678Z,39.70
2022-12-15T14:19:08.496Z,35.00
2022-12-15T14:21:37.309Z,33.60
2022-12-15T14:24:39.989Z,30.70
2022-12-15T14:27:08.812Z,31.80
2022-12-15T14:29:37.030Z,30.90
2022-12-15T14:32:06.004Z,31.50
2022-12-15T14:34:39.239Z,31.80
2022-12-15T14:37:12.384Z,30.80
2022-12-15T14:39:43.966Z,31.40
2022-12-15T14:42:18.363Z,31.40
2022-12-15T14:44:51.376Z,32.70
2022-12-15T14:47:35.767Z,34.50
2022-12-15T14:50:11.082Z,38.00
2022-12-15T14:52:42.232Z,39.80
2022-12-15T14:55:25.287Z,44.00
2022-12-15T14:57:53.986Z,49.20
2022-12-15T15:00:29.294Z,68.00
2022-12-15T15:03:18.726Z,126.30
2022-12-15T15:05:51.852Z,148.20
2022-12-15T15:08:32.671Z,119.40
2022-12-15T15:11:18.299Z,99.00
2022-12-15T15:13:47.147Z,129.40
2022-12-15T15:16:18.855Z,126.70
2022-12-15T15:18:52.340Z,104.80
2022-12-15T15:21:29.933Z,96.70
2022-12-15T15:24:25.660Z,139.90
2022-12-15T15:26:53.900Z,133.40
2022-12-15T15:29:38.832Z,108.80
2022-12-15T15:32:19.621Z,75.10
2022-12-15T15:34:48.506Z,122.80
2022-12-15T15:37:25.506Z,139.90
2022-12-15T15:39:55.552Z,100.50
2022-12-15T15:42:27.849Z,54.90
2022-12-15T15:45:00.382Z,69.70
2022-12-15T15:47:28.665Z,60.40
2022-12-15T15:49:59.965Z,64.00
2022-12-15T15:52:29.843Z,63.00
2022-12-15T15:54:59.531Z,60.80
2022-12-15T15:57:27.577Z,72.70
2022-12-15T15:59:55.606Z,69.10
2022-12-15T16:02:23.828Z,81.70
2022-12-15T16:04:52.021Z,76.60
2022-12-15T16:07:24.438Z,81.20
2022-12-15T16:09:53.601Z,97.70
2022-12-15T16:12:30.220Z,144.30
2022-12-15T16:14:58.245Z,122.90
2022-12-15T16:17:26.227Z,150.80
2022-12-15T16:19:54.264Z,129.70
2022-12-15T16:22:22.832Z,131.30
2022-12-15T16:24:51.160Z,122.20
2022-12-15T16:27:19.229Z,103.90
2022-12-15T16:29:47.362Z,93.90
2022-12-15T16:32:15.650Z,81.70
2022-12-15T16:34:43.672Z,72.90
2022-12-15T16:37:25.384Z,71.20
2022-12-15T16:39:53.596Z,60.50
2022-12-15T16:42:21.659Z,69.50
2022-12-15T16:44:49.762Z,72.30
2022-12-15T16:47:17.824Z,76.70
2022-12-15T16:49:45.875Z,75.20
2022-12-15T16:52:21.240Z,81.80
2022-12-15T16:54:50.286Z,82.50
2022-12-15T16:57:18.680Z,74.30
2022-12-15T16:59:46.869Z,69.80
2022-12-15T17:02:28.816Z,74.80
2022-12-15T17:04:57.541Z,74.20
2022-12-15T17:07:27.876Z,83.10
2022-12-15T17:09:56.826Z,90.10
2022-12-15T17:12:24.848Z,91.30
2022-12-15T17:14:52.902Z,70.30
2022-12-15T17:17:21.416Z,77.50
2022-12-15T17:20:32.653Z,71.70
2022-12-15T17:22:38.728Z,73.60
2022-12-15T17:25:13.052Z,80.20
2022-12-15T17:27:41.113Z,85.50
2022-12-15T17:30:13.467Z,90.40
2022-12-15T17:32:42.738Z,94.40
2022-12-15T17:35:12.590Z,75.50
2022-12-15T17:37:41.048Z,65.30
2022-12-15T17:40:18.362Z,64.80
2022-12-15T17:42:47.442Z,84.70
2022-12-15T17:45:24.165Z,99.60
2022-12-15T17:47:52.438Z,86.30
2022-12-15T17:50:20.587Z,83.60
2022-12-15T17:52:48.902Z,72.00
2022-12-15T17:55:34.601Z,63.70
2022-12-15T17:58:16.841Z,63.60
2022-12-15T18:00:49.264Z,66.50
2022-12-15T18:03:17.914Z,70.50
2022-12-15T18:05:48.052Z,81.80
2022-12-15T18:08:21.836Z,77.90
2022-12-15T18:10:52.718Z,66.90
2022-12-15T18:13:30.340Z,59.20
2022-12-15T18:16:04.251Z,50.30
2022-12-15T18:18:32.575Z,45.30
2022-12-15T18:21:08.159Z,48.20
2022-12-15T18:23:36.373Z,49.30
2022-12-15T18:26:04.683Z,50.00
2022-12-15T18:28:34.898Z,58.60
2022-12-15T18:31:22.102Z,66.80
2022-12-15T18:33:50.312Z,62.10
2022-12-15T18:36:18.935Z,55.90
2022-12-15T18:38:47.076Z,53.80
2022-12-15T18:41:18.295Z,52.40
2022-12-15T18:43:47.874Z,56.40
2022-12-15T18:46:17.334Z,53.80
2022-12-15T18:48:46.049Z,58.70
2022-12-15T18:51:20.277Z,63.60
2022-12-15T18:53:49.263Z,95.40
2022-12-15T18:56:19.481Z,86.10
2022-12-15T18:58:47.579Z,79.70
2022-12-15T19:01:16.394Z,70.60
2022-12-15T19:03:44.466Z,62.90
2022-12-15T19:06:25.923Z,57.40
2022-12-15T19:08:54.337Z,81.00
2022-12-15T19:11:33.546Z,74.80
2022-12-15T19:14:03.537Z,69.40
2022-12-15T19:16:51.589Z,68.10
2022-12-15T19:19:38.236Z,72.40
2022-12-15T19:22:30.109Z,65.90
2022-12-15T19:24:59.183Z,61.20
2022-12-15T19:27:27.512Z,55.70
2022-12-15T19:29:56.104Z,54.80
2022-12-15T19:32:24.462Z,55.90
2022-12-15T19:34:52.474Z,49.50
2022-12-15T19:37:27.470Z,52.90
2022-12-15T19:39:57.537Z,55.50
2022-12-15T19:42:37.302Z,61.40
2022-12-15T19:45:34.530Z,58.20
2022-12-15T19:48:02.561Z,56.60
2022-12-15T19:50:36.712Z,52.80
2022-12-15T19:53:27.276Z,47.90
2022-12-15T19:55:59.024Z,55.90
2022-12-15T20:03:30.339Z,72.70
2022-12-15T20:06:01.201Z,68.10
2022-12-15T20:08:38.314Z,58.20
2022-12-15T20:11:14.892Z,50.70
2022-12-15T20:13:42.949Z,46.90
2022-12-15T20:16:11.207Z,47.70
2022-12-15T20:18:40.734Z,43.80
2022-12-15T20:21:10.036Z,42.10
2022-12-15T20:23:48.335Z,37.50
2022-12-15T20:26:16.783Z,40.90
2022-12-15T20:28:44.908Z,41.80
2022-12-15T20:31:17.096Z,42.10
2022-12-15T20:33:46.573Z,41.30
2022-12-15T20:36:20.877Z,46.10
2022-12-15T20:38:48.932Z,51.70
2022-12-15T20:41:19.822Z,43.00
2022-12-15T20:43:48.799Z,42.60
2022-12-15T20:46:24.890Z,38.90
2022-12-15T20:48:55.176Z,40.30
2022-12-15T20:51:26.830Z,39.00
2022-12-15T20:53:57.445Z,38.90
2022-12-15T20:56:26.212Z,41.40
2022-12-15T20:58:56.244Z,41.90
2022-12-15T21:01:27.732Z,38.70
2022-12-15T21:03:58.181Z,39.70
2022-12-15T21:06:27.654Z,34.80
2022-12-15T21:08:56.861Z,36.10
2022-12-15T21:11:28.230Z,34.20
2022-12-15T21:13:58.979Z,34.50
2022-12-15T21:16:29.147Z,31.40
2022-12-15T21:19:19.235Z,32.50
2022-12-15T21:21:49.242Z,27.50
2022-12-15T21:24:24.864Z,38.00
2022-12-15T21:26:53.575Z,35.40
2022-12-15T21:29:24.311Z,32.90
2022-12-15T21:31:52.734Z,33.10
2022-12-15T21:34:20.776Z,33.30
2022-12-15T21:36:52.304Z,35.30
2022-12-15T21:39:33.691Z,33.50
2022-12-15T21:42:11.371Z,33.20
2022-12-15T21:44:39.422Z,34.30
2022-12-15T21:47:25.778Z,33.20
2022-12-15T21:49:53.845Z,30.70
2022-12-15T21:52:26.844Z,31.30
2022-12-15T21:54:54.926Z,27.60
2022-12-15T21:57:22.966Z,32.50
2022-12-15T21:59:50.950Z,30.50
2022-12-15T22:02:27.182Z,34.40
2022-12-15T22:04:55.667Z,31.30
2022-12-15T22:07:23.730Z,33.20
2022-12-15T22:09:51.896Z,34.40
2022-12-15T22:12:22.735Z,34.30
2022-12-15T22:14:50.835Z,41.00
2022-12-15T22:17:21.871Z,33.40
2022-12-15T22:19:49.958Z,32.30
2022-12-15T22:22:18.018Z,37.40
2022-12-15T22:24:46.242Z,29.90
2022-12-15T22:27:23.008Z,31.40
2022-12-15T22:29:51.526Z,31.00
2022-12-15T22:32:19.599Z,31.10
2022-12-15T22:34:47.624Z,33.90
2022-12-15T22:37:15.938Z,32.70
2022-12-15T22:39:43.956Z,36.30
2022-12-15T22:42:17.050Z,32.60
2022-12-15T22:44:45.911Z,34.40
2022-12-15T22:47:14.027Z,32.90
2022-12-15T22:49:42.553Z,33.20
2022-12-15T22:52:19.545Z,33.20
2022-12-15T22:54:48.158Z,32.20
2022-12-15T22:57:23.770Z,32.70
2022-12-15T23:00:05.745Z,32.80
2022-12-15T23:02:39.168Z,32.30
2022-12-15T23:05:10.426Z,33.00
2022-12-15T23:07:38.501Z,32.80
2022-12-15T23:10:25.919Z,32.50
2022-12-15T23:12:54.798Z,29.50
2022-12-15T23:15:43.681Z,30.10
2022-12-15T23:18:11.833Z,30.50
2022-12-15T23:20:40.263Z,31.90
2022-12-15T23:23:09.673Z,26.70
2022-12-15T23:25:38.029Z,33.70
2022-12-15T23:28:06.138Z,30.30
2022-12-15T23:30:34.749Z,30.60
2022-12-15T23:33:02.814Z,32.50
2022-12-15T23:35:30.963Z,30.70
2022-12-15T23:37:59.092Z,31.60
2022-12-15T23:40:27.143Z,30.50
2022-12-15T23:42:55.355Z,30.80
2022-12-15T23:45:23.731Z,33.20
2022-12-15T23:47:51.843Z,31.90
2022-12-15T23:50:22.303Z,31.60
2022-12-15T23:52:51.885Z,30.50
2022-12-15T23:55:20.126Z,30.50
2022-12-15T23:57:48.233Z,29.90
